sensor_id;sensor_type;location;lat;lon;timestamp;P1;durP1;ratioP1;P2;durP2;ratioP2
80423;SDS011;69765;47.668;19.326;2023-08-06T00:00:14;23.20;;;14.07;;
80423;SDS011;69765;47.668;19.326;2023-08-06T00:03:16;24.35;;;13.95;;
80423;SDS011;69765;47.668;19.326;2023-08-06T00:06:19;25.33;;;16.58;;
80423;SDS011;69765;47.668;19.326;2023-08-06T00:09:21;21.60;;;15.15;;
80423;SDS011;69765;47.668;19.326;2023-08-06T00:12:23;22.50;;;16.13;;
80423;SDS011;69765;47.668;19.326;2023-08-06T00:15:25;23.90;;;14.88;;
80423;SDS011;69765;47.668;19.326;2023-08-06T00:18:27;25.40;;;15.43;;
80423;SDS011;69765;47.668;19.326;2023-08-06T00:21:29;19.83;;;13.48;;
80423;SDS011;69765;47.668;19.326;2023-08-06T00:24:30;21.55;;;14.52;;
80423;SDS011;69765;47.668;19.326;2023-08-06T00:27:33;20.42;;;14.55;;
80423;SDS011;69765;47.668;19.326;2023-08-06T00:30:35;19.83;;;12.90;;
80423;SDS011;69765;47.668;19.326;2023-08-06T00:33:37;23.80;;;14.77;;
80423;SDS011;69765;47.668;19.326;2023-08-06T00:36:39;22.35;;;14.65;;
80423;SDS011;69765;47.668;19.326;2023-08-06T00:39:41;23.15;;;13.90;;
80423;SDS011;69765;47.668;19.326;2023-08-06T00:42:43;21.15;;;15.13;;
80423;SDS011;69765;47.668;19.326;2023-08-06T00:45:46;21.45;;;14.35;;
80423;SDS011;69765;47.668;19.326;2023-08-06T00:48:48;22.27;;;15.20;;
80423;SDS011;69765;47.668;19.326;2023-08-06T00:51:52;25.00;;;15.55;;
80423;SDS011;69765;47.668;19.326;2023-08-06T00:54:55;23.02;;;14.35;;
80423;SDS011;69765;47.668;19.326;2023-08-06T00:57:57;25.30;;;16.60;;
80423;SDS011;69765;47.668;19.326;2023-08-06T01:00:59;27.80;;;16.73;;
80423;SDS011;69765;47.668;19.326;2023-08-06T01:04:02;27.65;;;16.85;;
80423;SDS011;69765;47.668;19.326;2023-08-06T01:19:50;25.33;;;16.35;;
80423;SDS011;69765;47.668;19.326;2023-08-06T01:22:53;21.75;;;14.30;;
80423;SDS011;69765;47.668;19.326;2023-08-06T01:26:42;23.90;;;15.02;;
80423;SDS011;69765;47.668;19.326;2023-08-06T01:29:19;26.23;;;17.90;;
80423;SDS011;69765;47.668;19.326;2023-08-06T01:32:24;25.60;;;16.40;;
80423;SDS011;69765;47.668;19.326;2023-08-06T01:35:26;26.75;;;16.70;;
80423;SDS011;69765;47.668;19.326;2023-08-06T01:38:29;23.63;;;16.50;;
80423;SDS011;69765;47.668;19.326;2023-08-06T01:41:32;28.80;;;16.67;;
80423;SDS011;69765;47.668;19.326;2023-08-06T01:44:34;24.45;;;14.50;;
80423;SDS011;69765;47.668;19.326;2023-08-06T01:47:35;19.55;;;13.52;;
80423;SDS011;69765;47.668;19.326;2023-08-06T01:50:38;17.17;;;11.25;;
80423;SDS011;69765;47.668;19.326;2023-08-06T01:53:39;13.98;;;9.32;;
80423;SDS011;69765;47.668;19.326;2023-08-06T01:56:41;13.35;;;8.73;;
80423;SDS011;69765;47.668;19.326;2023-08-06T01:59:43;10.35;;;7.65;;
80423;SDS011;69765;47.668;19.326;2023-08-06T02:02:45;11.05;;;7.20;;
80423;SDS011;69765;47.668;19.326;2023-08-06T02:05:47;10.30;;;6.63;;
80423;SDS011;69765;47.668;19.326;2023-08-06T02:08:49;9.35;;;6.75;;
80423;SDS011;69765;47.668;19.326;2023-08-06T02:11:51;8.82;;;6.28;;
80423;SDS011;69765;47.668;19.326;2023-08-06T02:14:54;10.48;;;6.63;;
80423;SDS011;69765;47.668;19.326;2023-08-06T02:17:56;9.15;;;7.30;;
80423;SDS011;69765;47.668;19.326;2023-08-06T02:20:58;10.55;;;7.30;;
80423;SDS011;69765;47.668;19.326;2023-08-06T02:24:00;11.32;;;7.60;;
80423;SDS011;69765;47.668;19.326;2023-08-06T02:27:02;10.27;;;7.25;;
80423;SDS011;69765;47.668;19.326;2023-08-06T02:30:05;11.30;;;8.10;;
80423;SDS011;69765;47.668;19.326;2023-08-06T02:33:07;11.52;;;7.63;;
80423;SDS011;69765;47.668;19.326;2023-08-06T02:36:09;10.75;;;6.78;;
80423;SDS011;69765;47.668;19.326;2023-08-06T02:39:11;11.00;;;7.20;;
80423;SDS011;69765;47.668;19.326;2023-08-06T02:42:13;9.80;;;6.30;;
80423;SDS011;69765;47.668;19.326;2023-08-06T02:45:15;10.50;;;6.70;;
80423;SDS011;69765;47.668;19.326;2023-08-06T02:48:17;8.68;;;6.35;;
80423;SDS011;69765;47.668;19.326;2023-08-06T02:51:20;7.80;;;5.70;;
80423;SDS011;69765;47.668;19.326;2023-08-06T02:54:22;9.13;;;6.18;;
80423;SDS011;69765;47.668;19.326;2023-08-06T02:57:24;8.43;;;5.85;;
80423;SDS011;69765;47.668;19.326;2023-08-06T03:00:28;9.18;;;5.50;;
80423;SDS011;69765;47.668;19.326;2023-08-06T03:03:30;7.57;;;5.43;;
80423;SDS011;69765;47.668;19.326;2023-08-06T03:06:35;7.72;;;5.72;;
80423;SDS011;69765;47.668;19.326;2023-08-06T03:09:37;8.18;;;5.78;;
80423;SDS011;69765;47.668;19.326;2023-08-06T03:12:40;8.38;;;5.72;;
80423;SDS011;69765;47.668;19.326;2023-08-06T03:15:42;6.85;;;4.20;;
80423;SDS011;69765;47.668;19.326;2023-08-06T03:18:46;8.95;;;5.15;;
80423;SDS011;69765;47.668;19.326;2023-08-06T03:21:49;6.35;;;4.47;;
80423;SDS011;69765;47.668;19.326;2023-08-06T03:24:52;5.65;;;4.60;;
80423;SDS011;69765;47.668;19.326;2023-08-06T03:27:56;6.00;;;4.20;;
80423;SDS011;69765;47.668;19.326;2023-08-06T03:30:59;8.63;;;5.10;;
80423;SDS011;69765;47.668;19.326;2023-08-06T03:34:05;7.72;;;4.70;;
80423;SDS011;69765;47.668;19.326;2023-08-06T03:37:09;6.03;;;4.43;;
80423;SDS011;69765;47.668;19.326;2023-08-06T03:40:11;6.07;;;4.85;;
80423;SDS011;69765;47.668;19.326;2023-08-06T03:43:13;5.82;;;4.20;;
80423;SDS011;69765;47.668;19.326;2023-08-06T03:46:15;6.47;;;4.88;;
80423;SDS011;69765;47.668;19.326;2023-08-06T03:49:18;5.53;;;4.40;;
80423;SDS011;69765;47.668;19.326;2023-08-06T03:52:22;6.72;;;4.80;;
80423;SDS011;69765;47.668;19.326;2023-08-06T03:55:24;6.43;;;4.68;;
80423;SDS011;69765;47.668;19.326;2023-08-06T03:58:27;7.68;;;4.82;;
80423;SDS011;69765;47.668;19.326;2023-08-06T04:01:29;7.63;;;5.28;;
80423;SDS011;69765;47.668;19.326;2023-08-06T04:04:31;6.68;;;5.00;;
80423;SDS011;69765;47.668;19.326;2023-08-06T04:07:33;10.40;;;4.90;;
80423;SDS011;69765;47.668;19.326;2023-08-06T04:10:35;6.53;;;4.80;;
80423;SDS011;69765;47.668;19.326;2023-08-06T04:13:37;6.45;;;4.72;;
80423;SDS011;69765;47.668;19.326;2023-08-06T04:16:39;4.43;;;3.88;;
80423;SDS011;69765;47.668;19.326;2023-08-06T04:19:42;5.78;;;4.45;;
80423;SDS011;69765;47.668;19.326;2023-08-06T04:22:44;6.32;;;4.47;;
80423;SDS011;69765;47.668;19.326;2023-08-06T04:25:46;6.07;;;4.45;;
80423;SDS011;69765;47.668;19.326;2023-08-06T04:28:48;6.03;;;3.90;;
80423;SDS011;69765;47.668;19.326;2023-08-06T04:31:50;7.65;;;3.95;;
80423;SDS011;69765;47.668;19.326;2023-08-06T04:34:55;5.68;;;3.45;;
80423;SDS011;69765;47.668;19.326;2023-08-06T04:37:58;6.13;;;3.97;;
80423;SDS011;69765;47.668;19.326;2023-08-06T04:41:01;8.07;;;4.25;;
80423;SDS011;69765;47.668;19.326;2023-08-06T04:44:03;7.80;;;4.43;;
80423;SDS011;69765;47.668;19.326;2023-08-06T04:47:06;6.30;;;4.00;;
80423;SDS011;69765;47.668;19.326;2023-08-06T04:50:08;6.82;;;3.17;;
80423;SDS011;69765;47.668;19.326;2023-08-06T04:53:10;4.30;;;2.83;;
80423;SDS011;69765;47.668;19.326;2023-08-06T04:56:12;5.00;;;3.28;;
80423;SDS011;69765;47.668;19.326;2023-08-06T04:59:14;4.35;;;2.92;;
80423;SDS011;69765;47.668;19.326;2023-08-06T05:02:16;4.43;;;2.70;;
80423;SDS011;69765;47.668;19.326;2023-08-06T05:05:18;5.45;;;3.50;;
80423;SDS011;69765;47.668;19.326;2023-08-06T05:08:20;4.15;;;2.95;;
80423;SDS011;69765;47.668;19.326;2023-08-06T05:11:22;5.50;;;3.50;;
80423;SDS011;69765;47.668;19.326;2023-08-06T05:14:24;6.75;;;4.55;;
80423;SDS011;69765;47.668;19.326;2023-08-06T05:17:26;8.30;;;7.07;;
80423;SDS011;69765;47.668;19.326;2023-08-06T05:20:28;9.23;;;5.72;;
80423;SDS011;69765;47.668;19.326;2023-08-06T05:23:30;9.32;;;6.20;;
80423;SDS011;69765;47.668;19.326;2023-08-06T05:26:32;8.38;;;6.53;;
80423;SDS011;69765;47.668;19.326;2023-08-06T05:29:34;9.73;;;5.90;;
80423;SDS011;69765;47.668;19.326;2023-08-06T05:32:36;6.55;;;4.60;;
80423;SDS011;69765;47.668;19.326;2023-08-06T05:35:40;13.52;;;9.65;;
80423;SDS011;69765;47.668;19.326;2023-08-06T05:38:42;10.60;;;7.78;;
80423;SDS011;69765;47.668;19.326;2023-08-06T05:41:44;7.03;;;4.53;;
80423;SDS011;69765;47.668;19.326;2023-08-06T05:44:46;5.45;;;3.35;;
80423;SDS011;69765;47.668;19.326;2023-08-06T05:47:48;7.53;;;5.32;;
80423;SDS011;69765;47.668;19.326;2023-08-06T05:50:51;4.50;;;2.70;;
80423;SDS011;69765;47.668;19.326;2023-08-06T05:53:53;4.20;;;2.97;;
80423;SDS011;69765;47.668;19.326;2023-08-06T05:56:55;6.63;;;2.55;;
80423;SDS011;69765;47.668;19.326;2023-08-06T05:59:57;4.22;;;3.20;;
80423;SDS011;69765;47.668;19.326;2023-08-06T06:02:59;3.28;;;2.20;;
80423;SDS011;69765;47.668;19.326;2023-08-06T06:06:01;2.50;;;1.40;;
80423;SDS011;69765;47.668;19.326;2023-08-06T06:09:03;2.28;;;1.38;;
80423;SDS011;69765;47.668;19.326;2023-08-06T06:12:06;2.10;;;1.23;;
80423;SDS011;69765;47.668;19.326;2023-08-06T06:15:08;2.30;;;1.38;;
80423;SDS011;69765;47.668;19.326;2023-08-06T06:18:10;2.63;;;1.90;;
80423;SDS011;69765;47.668;19.326;2023-08-06T06:21:12;3.22;;;2.25;;
80423;SDS011;69765;47.668;19.326;2023-08-06T06:24:14;1.83;;;1.13;;
80423;SDS011;69765;47.668;19.326;2023-08-06T06:27:16;1.65;;;1.00;;
80423;SDS011;69765;47.668;19.326;2023-08-06T06:30:18;0.73;;;0.40;;
80423;SDS011;69765;47.668;19.326;2023-08-06T06:33:20;0.98;;;0.57;;
80423;SDS011;69765;47.668;19.326;2023-08-06T06:36:22;1.10;;;0.63;;
80423;SDS011;69765;47.668;19.326;2023-08-06T06:39:25;0.55;;;0.40;;
80423;SDS011;69765;47.668;19.326;2023-08-06T06:42:27;1.77;;;1.25;;
80423;SDS011;69765;47.668;19.326;2023-08-06T06:45:33;0.98;;;0.60;;
80423;SDS011;69765;47.668;19.326;2023-08-06T06:48:35;1.25;;;0.70;;
80423;SDS011;69765;47.668;19.326;2023-08-06T06:51:37;1.85;;;0.90;;
80423;SDS011;69765;47.668;19.326;2023-08-06T06:54:41;1.27;;;0.75;;
80423;SDS011;69765;47.668;19.326;2023-08-06T06:57:43;1.92;;;0.90;;
80423;SDS011;69765;47.668;19.326;2023-08-06T07:00:46;1.40;;;0.77;;
80423;SDS011;69765;47.668;19.326;2023-08-06T07:03:48;2.97;;;1.10;;
80423;SDS011;69765;47.668;19.326;2023-08-06T07:06:50;5.78;;;2.67;;
80423;SDS011;69765;47.668;19.326;2023-08-06T07:09:53;2.33;;;1.42;;
80423;SDS011;69765;47.668;19.326;2023-08-06T07:12:55;2.22;;;1.05;;
80423;SDS011;69765;47.668;19.326;2023-08-06T07:15:58;1.70;;;1.00;;
80423;SDS011;69765;47.668;19.326;2023-08-06T07:19:00;1.85;;;1.10;;
80423;SDS011;69765;47.668;19.326;2023-08-06T07:22:02;1.95;;;1.05;;
80423;SDS011;69765;47.668;19.326;2023-08-06T07:25:04;1.63;;;1.27;;
80423;SDS011;69765;47.668;19.326;2023-08-06T07:28:06;3.78;;;1.52;;
80423;SDS011;69765;47.668;19.326;2023-08-06T07:31:08;2.22;;;1.30;;
80423;SDS011;69765;47.668;19.326;2023-08-06T07:34:10;1.92;;;1.27;;
80423;SDS011;69765;47.668;19.326;2023-08-06T07:37:12;2.53;;;1.88;;
80423;SDS011;69765;47.668;19.326;2023-08-06T07:40:14;2.20;;;1.40;;
80423;SDS011;69765;47.668;19.326;2023-08-06T07:43:16;3.45;;;1.70;;
80423;SDS011;69765;47.668;19.326;2023-08-06T07:46:18;2.00;;;1.38;;
80423;SDS011;69765;47.668;19.326;2023-08-06T07:49:21;1.50;;;1.15;;
80423;SDS011;69765;47.668;19.326;2023-08-06T07:52:23;2.47;;;1.98;;
80423;SDS011;69765;47.668;19.326;2023-08-06T07:55:25;2.38;;;1.67;;
80423;SDS011;69765;47.668;19.326;2023-08-06T07:58:27;1.85;;;1.48;;
80423;SDS011;69765;47.668;19.326;2023-08-06T08:01:31;2.30;;;1.17;;
80423;SDS011;69765;47.668;19.326;2023-08-06T08:04:33;1.83;;;0.93;;
80423;SDS011;69765;47.668;19.326;2023-08-06T08:07:35;2.03;;;1.23;;
80423;SDS011;69765;47.668;19.326;2023-08-06T08:10:37;2.08;;;1.13;;
80423;SDS011;69765;47.668;19.326;2023-08-06T08:13:40;0.93;;;0.70;;
80423;SDS011;69765;47.668;19.326;2023-08-06T08:16:42;0.88;;;0.70;;
80423;SDS011;69765;47.668;19.326;2023-08-06T08:19:44;1.60;;;0.70;;
80423;SDS011;69765;47.668;19.326;2023-08-06T08:22:46;1.90;;;0.60;;
80423;SDS011;69765;47.668;19.326;2023-08-06T08:25:48;0.77;;;0.40;;
80423;SDS011;69765;47.668;19.326;2023-08-06T08:28:50;0.60;;;0.40;;
80423;SDS011;69765;47.668;19.326;2023-08-06T08:31:52;0.30;;;0.30;;
80423;SDS011;69765;47.668;19.326;2023-08-06T08:34:55;0.93;;;0.45;;
80423;SDS011;69765;47.668;19.326;2023-08-06T08:37:57;0.55;;;0.43;;
80423;SDS011;69765;47.668;19.326;2023-08-06T08:40:59;0.50;;;0.32;;
80423;SDS011;69765;47.668;19.326;2023-08-06T08:44:01;0.50;;;0.32;;
80423;SDS011;69765;47.668;19.326;2023-08-06T08:47:04;0.80;;;0.40;;
80423;SDS011;69765;47.668;19.326;2023-08-06T08:50:06;0.40;;;0.30;;
80423;SDS011;69765;47.668;19.326;2023-08-06T08:53:08;0.22;;;0.22;;
80423;SDS011;69765;47.668;19.326;2023-08-06T08:56:12;0.45;;;0.30;;
80423;SDS011;69765;47.668;19.326;2023-08-06T08:59:15;0.25;;;0.22;;
80423;SDS011;69765;47.668;19.326;2023-08-06T09:02:17;0.70;;;0.22;;
80423;SDS011;69765;47.668;19.326;2023-08-06T09:05:20;0.95;;;0.38;;
80423;SDS011;69765;47.668;19.326;2023-08-06T09:08:24;0.70;;;0.43;;
80423;SDS011;69765;47.668;19.326;2023-08-06T09:11:29;0.20;;;0.20;;
80423;SDS011;69765;47.668;19.326;2023-08-06T09:14:40;1.17;;;0.80;;
80423;SDS011;69765;47.668;19.326;2023-08-06T09:17:42;2.28;;;1.02;;
80423;SDS011;69765;47.668;19.326;2023-08-06T09:20:44;0.77;;;0.43;;
80423;SDS011;69765;47.668;19.326;2023-08-06T09:23:46;0.30;;;0.20;;
80423;SDS011;69765;47.668;19.326;2023-08-06T09:26:48;1.20;;;0.30;;
80423;SDS011;69765;47.668;19.326;2023-08-06T09:29:50;0.40;;;0.35;;
80423;SDS011;69765;47.668;19.326;2023-08-06T09:32:52;0.30;;;0.20;;
80423;SDS011;69765;47.668;19.326;2023-08-06T09:35:54;0.30;;;0.30;;
80423;SDS011;69765;47.668;19.326;2023-08-06T09:38:56;0.20;;;0.20;;
80423;SDS011;69765;47.668;19.326;2023-08-06T09:41:59;0.20;;;0.20;;
80423;SDS011;69765;47.668;19.326;2023-08-06T09:45:07;0.50;;;0.40;;
80423;SDS011;69765;47.668;19.326;2023-08-06T09:48:09;1.27;;;0.30;;
80423;SDS011;69765;47.668;19.326;2023-08-06T09:51:13;0.32;;;0.32;;
80423;SDS011;69765;47.668;19.326;2023-08-06T09:54:16;0.50;;;0.30;;
80423;SDS011;69765;47.668;19.326;2023-08-06T09:57:29;0.47;;;0.40;;
80423;SDS011;69765;47.668;19.326;2023-08-06T10:00:33;0.25;;;0.20;;
80423;SDS011;69765;47.668;19.326;2023-08-06T10:03:42;0.40;;;0.30;;
80423;SDS011;69765;47.668;19.326;2023-08-06T10:06:48;1.88;;;0.50;;
80423;SDS011;69765;47.668;19.326;2023-08-06T10:09:50;0.40;;;0.30;;
80423;SDS011;69765;47.668;19.326;2023-08-06T10:12:54;0.50;;;0.30;;
80423;SDS011;69765;47.668;19.326;2023-08-06T10:15:59;0.30;;;0.30;;
80423;SDS011;69765;47.668;19.326;2023-08-06T10:19:01;0.20;;;0.20;;
80423;SDS011;69765;47.668;19.326;2023-08-06T10:25:18;0.30;;;0.30;;
80423;SDS011;69765;47.668;19.326;2023-08-06T10:28:20;0.57;;;0.43;;
80423;SDS011;69765;47.668;19.326;2023-08-06T10:32:08;0.75;;;0.30;;
80423;SDS011;69765;47.668;19.326;2023-08-06T10:34:58;0.40;;;0.30;;
80423;SDS011;69765;47.668;19.326;2023-08-06T10:41:05;0.20;;;0.20;;
80423;SDS011;69765;47.668;19.326;2023-08-06T10:44:07;1.00;;;0.45;;
80423;SDS011;69765;47.668;19.326;2023-08-06T10:47:28;3.45;;;2.05;;
80423;SDS011;69765;47.668;19.326;2023-08-06T10:50:30;2.25;;;0.50;;
80423;SDS011;69765;47.668;19.326;2023-08-06T10:53:33;0.60;;;0.30;;
80423;SDS011;69765;47.668;19.326;2023-08-06T10:56:39;0.68;;;0.43;;
80423;SDS011;69765;47.668;19.326;2023-08-06T10:59:41;0.63;;;0.52;;
80423;SDS011;69765;47.668;19.326;2023-08-06T11:02:46;0.50;;;0.30;;
80423;SDS011;69765;47.668;19.326;2023-08-06T11:05:49;0.85;;;0.50;;
80423;SDS011;69765;47.668;19.326;2023-08-06T11:08:52;1.27;;;0.70;;
80423;SDS011;69765;47.668;19.326;2023-08-06T11:11:55;0.45;;;0.32;;
80423;SDS011;69765;47.668;19.326;2023-08-06T11:14:58;0.95;;;0.60;;
80423;SDS011;69765;47.668;19.326;2023-08-06T11:18:00;0.63;;;0.50;;
80423;SDS011;69765;47.668;19.326;2023-08-06T11:21:02;0.52;;;0.22;;
80423;SDS011;69765;47.668;19.326;2023-08-06T11:24:04;0.45;;;0.40;;
80423;SDS011;69765;47.668;19.326;2023-08-06T11:27:12;0.20;;;0.20;;
80423;SDS011;69765;47.668;19.326;2023-08-06T11:30:15;0.75;;;0.52;;
80423;SDS011;69765;47.668;19.326;2023-08-06T11:33:21;0.85;;;0.50;;
80423;SDS011;69765;47.668;19.326;2023-08-06T11:39:36;1.52;;;0.38;;
80423;SDS011;69765;47.668;19.326;2023-08-06T11:42:38;1.55;;;0.50;;
80423;SDS011;69765;47.668;19.326;2023-08-06T11:45:40;0.98;;;0.43;;
80423;SDS011;69765;47.668;19.326;2023-08-06T11:48:52;0.73;;;0.40;;
80423;SDS011;69765;47.668;19.326;2023-08-06T11:51:54;0.55;;;0.35;;
80423;SDS011;69765;47.668;19.326;2023-08-06T11:55:03;0.65;;;0.40;;
80423;SDS011;69765;47.668;19.326;2023-08-06T11:58:09;0.32;;;0.32;;
80423;SDS011;69765;47.668;19.326;2023-08-06T12:01:11;0.65;;;0.35;;
80423;SDS011;69765;47.668;19.326;2023-08-06T12:04:13;0.45;;;0.35;;
80423;SDS011;69765;47.668;19.326;2023-08-06T12:07:15;0.82;;;0.50;;
80423;SDS011;69765;47.668;19.326;2023-08-06T12:10:19;1.15;;;0.63;;
80423;SDS011;69765;47.668;19.326;2023-08-06T12:13:22;1.75;;;0.73;;
80423;SDS011;69765;47.668;19.326;2023-08-06T12:16:24;1.98;;;0.60;;
80423;SDS011;69765;47.668;19.326;2023-08-06T12:19:26;0.80;;;0.50;;
80423;SDS011;69765;47.668;19.326;2023-08-06T12:22:28;1.52;;;0.50;;
80423;SDS011;69765;47.668;19.326;2023-08-06T12:25:33;0.40;;;0.32;;
80423;SDS011;69765;47.668;19.326;2023-08-06T12:28:35;0.35;;;0.35;;
80423;SDS011;69765;47.668;19.326;2023-08-06T12:31:37;0.50;;;0.32;;
80423;SDS011;69765;47.668;19.326;2023-08-06T12:34:40;0.30;;;0.30;;
80423;SDS011;69765;47.668;19.326;2023-08-06T12:37:53;1.35;;;0.43;;
80423;SDS011;69765;47.668;19.326;2023-08-06T12:40:56;0.77;;;0.40;;
80423;SDS011;69765;47.668;19.326;2023-08-06T12:43:58;0.98;;;0.60;;
80423;SDS011;69765;47.668;19.326;2023-08-06T12:47:00;1.75;;;0.50;;
80423;SDS011;69765;47.668;19.326;2023-08-06T12:50:02;0.98;;;0.50;;
80423;SDS011;69765;47.668;19.326;2023-08-06T12:53:04;0.68;;;0.40;;
80423;SDS011;69765;47.668;19.326;2023-08-06T12:56:07;0.88;;;0.60;;
80423;SDS011;69765;47.668;19.326;2023-08-06T12:59:09;0.70;;;0.40;;
80423;SDS011;69765;47.668;19.326;2023-08-06T13:02:11;0.85;;;0.60;;
80423;SDS011;69765;47.668;19.326;2023-08-06T13:05:13;0.70;;;0.40;;
80423;SDS011;69765;47.668;19.326;2023-08-06T13:08:15;0.52;;;0.43;;
80423;SDS011;69765;47.668;19.326;2023-08-06T13:11:17;0.63;;;0.55;;
80423;SDS011;69765;47.668;19.326;2023-08-06T13:14:20;0.95;;;0.55;;
80423;SDS011;69765;47.668;19.326;2023-08-06T13:17:23;0.93;;;0.63;;
80423;SDS011;69765;47.668;19.326;2023-08-06T13:20:25;1.15;;;0.60;;
80423;SDS011;69765;47.668;19.326;2023-08-06T13:23:27;0.90;;;0.52;;
80423;SDS011;69765;47.668;19.326;2023-08-06T13:26:29;1.30;;;0.52;;
80423;SDS011;69765;47.668;19.326;2023-08-06T13:29:32;1.35;;;0.85;;
80423;SDS011;69765;47.668;19.326;2023-08-06T13:32:33;2.25;;;0.57;;
80423;SDS011;69765;47.668;19.326;2023-08-06T13:35:38;1.30;;;0.73;;
80423;SDS011;69765;47.668;19.326;2023-08-06T13:38:40;0.95;;;0.65;;
80423;SDS011;69765;47.668;19.326;2023-08-06T13:41:42;0.90;;;0.45;;
80423;SDS011;69765;47.668;19.326;2023-08-06T13:44:45;0.85;;;0.55;;
80423;SDS011;69765;47.668;19.326;2023-08-06T13:47:47;2.08;;;0.70;;
80423;SDS011;69765;47.668;19.326;2023-08-06T13:50:49;1.10;;;0.50;;
80423;SDS011;69765;47.668;19.326;2023-08-06T13:53:51;1.95;;;1.05;;
80423;SDS011;69765;47.668;19.326;2023-08-06T13:56:54;0.70;;;0.60;;
80423;SDS011;69765;47.668;19.326;2023-08-06T13:59:56;0.93;;;0.60;;
80423;SDS011;69765;47.668;19.326;2023-08-06T14:02:58;1.23;;;0.75;;
80423;SDS011;69765;47.668;19.326;2023-08-06T14:06:00;1.48;;;0.80;;
80423;SDS011;69765;47.668;19.326;2023-08-06T14:09:02;1.92;;;1.10;;
80423;SDS011;69765;47.668;19.326;2023-08-06T14:12:04;1.00;;;0.70;;
80423;SDS011;69765;47.668;19.326;2023-08-06T14:15:07;0.90;;;0.52;;
80423;SDS011;69765;47.668;19.326;2023-08-06T14:18:10;2.10;;;0.98;;
80423;SDS011;69765;47.668;19.326;2023-08-06T14:21:12;2.25;;;0.80;;
80423;SDS011;69765;47.668;19.326;2023-08-06T14:24:13;2.25;;;1.30;;
80423;SDS011;69765;47.668;19.326;2023-08-06T14:27:16;1.27;;;0.90;;
80423;SDS011;69765;47.668;19.326;2023-08-06T14:30:18;1.67;;;1.00;;
80423;SDS011;69765;47.668;19.326;2023-08-06T14:33:20;1.17;;;0.80;;
80423;SDS011;69765;47.668;19.326;2023-08-06T14:36:28;1.77;;;1.05;;
80423;SDS011;69765;47.668;19.326;2023-08-06T14:39:30;3.40;;;1.30;;
80423;SDS011;69765;47.668;19.326;2023-08-06T14:42:32;1.55;;;0.93;;
80423;SDS011;69765;47.668;19.326;2023-08-06T14:45:37;1.90;;;1.35;;
80423;SDS011;69765;47.668;19.326;2023-08-06T14:48:39;2.03;;;1.20;;
80423;SDS011;69765;47.668;19.326;2023-08-06T14:51:41;2.10;;;1.25;;
80423;SDS011;69765;47.668;19.326;2023-08-06T14:54:43;2.30;;;1.30;;
80423;SDS011;69765;47.668;19.326;2023-08-06T14:57:45;2.88;;;1.63;;
80423;SDS011;69765;47.668;19.326;2023-08-06T15:00:47;2.70;;;1.30;;
80423;SDS011;69765;47.668;19.326;2023-08-06T15:03:49;2.13;;;1.13;;
80423;SDS011;69765;47.668;19.326;2023-08-06T15:06:51;1.80;;;0.95;;
80423;SDS011;69765;47.668;19.326;2023-08-06T15:09:54;2.35;;;1.40;;
80423;SDS011;69765;47.668;19.326;2023-08-06T15:13:17;2.10;;;1.27;;
80423;SDS011;69765;47.668;19.326;2023-08-06T15:16:20;2.38;;;1.05;;
80423;SDS011;69765;47.668;19.326;2023-08-06T15:19:23;2.80;;;1.45;;
80423;SDS011;69765;47.668;19.326;2023-08-06T15:22:25;2.50;;;1.30;;
80423;SDS011;69765;47.668;19.326;2023-08-06T15:25:27;2.13;;;1.35;;
80423;SDS011;69765;47.668;19.326;2023-08-06T15:28:29;3.17;;;1.55;;
80423;SDS011;69765;47.668;19.326;2023-08-06T15:31:38;1.83;;;1.33;;
80423;SDS011;69765;47.668;19.326;2023-08-06T15:34:40;2.05;;;1.35;;
80423;SDS011;69765;47.668;19.326;2023-08-06T15:37:42;2.35;;;1.60;;
80423;SDS011;69765;47.668;19.326;2023-08-06T15:40:44;2.42;;;1.48;;
80423;SDS011;69765;47.668;19.326;2023-08-06T15:43:47;2.42;;;1.52;;
80423;SDS011;69765;47.668;19.326;2023-08-06T15:46:50;2.30;;;1.35;;
80423;SDS011;69765;47.668;19.326;2023-08-06T15:49:52;2.15;;;1.52;;
80423;SDS011;69765;47.668;19.326;2023-08-06T15:52:54;3.50;;;1.70;;
80423;SDS011;69765;47.668;19.326;2023-08-06T15:55:56;2.53;;;1.83;;
80423;SDS011;69765;47.668;19.326;2023-08-06T15:59:08;2.97;;;1.40;;
80423;SDS011;69765;47.668;19.326;2023-08-06T16:02:20;2.88;;;1.70;;
80423;SDS011;69765;47.668;19.326;2023-08-06T16:05:22;3.65;;;2.42;;
80423;SDS011;69765;47.668;19.326;2023-08-06T16:08:24;3.00;;;1.58;;
80423;SDS011;69765;47.668;19.326;2023-08-06T16:11:26;2.13;;;1.50;;
80423;SDS011;69765;47.668;19.326;2023-08-06T16:14:28;2.00;;;1.38;;
80423;SDS011;69765;47.668;19.326;2023-08-06T16:17:30;2.67;;;1.45;;
80423;SDS011;69765;47.668;19.326;2023-08-06T16:20:32;2.85;;;1.80;;
80423;SDS011;69765;47.668;19.326;2023-08-06T16:23:34;3.80;;;1.80;;
80423;SDS011;69765;47.668;19.326;2023-08-06T16:26:36;2.25;;;1.50;;
80423;SDS011;69765;47.668;19.326;2023-08-06T16:29:38;2.35;;;1.60;;
80423;SDS011;69765;47.668;19.326;2023-08-06T16:32:40;2.35;;;1.77;;
80423;SDS011;69765;47.668;19.326;2023-08-06T16:35:43;2.58;;;1.88;;
80423;SDS011;69765;47.668;19.326;2023-08-06T16:38:45;3.55;;;2.10;;
80423;SDS011;69765;47.668;19.326;2023-08-06T16:41:46;3.45;;;2.03;;
80423;SDS011;69765;47.668;19.326;2023-08-06T16:44:49;2.92;;;1.73;;
80423;SDS011;69765;47.668;19.326;2023-08-06T16:47:50;2.60;;;1.67;;
80423;SDS011;69765;47.668;19.326;2023-08-06T16:50:57;2.75;;;1.98;;
80423;SDS011;69765;47.668;19.326;2023-08-06T16:54:00;2.40;;;1.60;;
80423;SDS011;69765;47.668;19.326;2023-08-06T16:57:02;2.80;;;1.80;;
80423;SDS011;69765;47.668;19.326;2023-08-06T17:00:04;2.75;;;2.00;;
80423;SDS011;69765;47.668;19.326;2023-08-06T17:03:06;2.70;;;1.60;;
80423;SDS011;69765;47.668;19.326;2023-08-06T17:06:08;2.50;;;1.63;;
80423;SDS011;69765;47.668;19.326;2023-08-06T17:09:16;3.08;;;1.90;;
80423;SDS011;69765;47.668;19.326;2023-08-06T17:12:18;2.88;;;1.92;;
80423;SDS011;69765;47.668;19.326;2023-08-06T17:15:21;3.08;;;1.90;;
80423;SDS011;69765;47.668;19.326;2023-08-06T17:18:23;3.63;;;1.60;;
80423;SDS011;69765;47.668;19.326;2023-08-06T17:21:26;2.88;;;1.58;;
80423;SDS011;69765;47.668;19.326;2023-08-06T17:24:28;2.67;;;1.83;;
80423;SDS011;69765;47.668;19.326;2023-08-06T17:27:29;2.75;;;1.80;;
80423;SDS011;69765;47.668;19.326;2023-08-06T17:30:32;3.03;;;1.67;;
80423;SDS011;69765;47.668;19.326;2023-08-06T17:33:34;2.70;;;1.48;;
80423;SDS011;69765;47.668;19.326;2023-08-06T17:36:36;2.80;;;1.88;;
80423;SDS011;69765;47.668;19.326;2023-08-06T17:39:38;3.05;;;2.08;;
80423;SDS011;69765;47.668;19.326;2023-08-06T17:42:40;2.80;;;1.75;;
80423;SDS011;69765;47.668;19.326;2023-08-06T17:45:42;3.72;;;2.22;;
80423;SDS011;69765;47.668;19.326;2023-08-06T17:48:44;3.08;;;1.63;;
80423;SDS011;69765;47.668;19.326;2023-08-06T17:51:46;2.20;;;1.33;;
80423;SDS011;69765;47.668;19.326;2023-08-06T17:54:49;2.85;;;1.40;;
80423;SDS011;69765;47.668;19.326;2023-08-06T17:57:51;1.75;;;1.20;;
80423;SDS011;69765;47.668;19.326;2023-08-06T18:00:53;3.05;;;1.58;;
80423;SDS011;69765;47.668;19.326;2023-08-06T18:03:56;2.15;;;1.60;;
80423;SDS011;69765;47.668;19.326;2023-08-06T18:06:58;2.35;;;1.50;;
80423;SDS011;69765;47.668;19.326;2023-08-06T18:10:00;1.83;;;1.42;;
80423;SDS011;69765;47.668;19.326;2023-08-06T18:13:02;2.88;;;1.63;;
80423;SDS011;69765;47.668;19.326;2023-08-06T18:16:04;2.72;;;1.55;;
80423;SDS011;69765;47.668;19.326;2023-08-06T18:19:06;2.10;;;1.55;;
80423;SDS011;69765;47.668;19.326;2023-08-06T18:22:08;2.38;;;1.50;;